Time;durP1;ratioP1;P1;durP2;ratioP2;P2;SDS_P1;SDS_P2;PMS_P1;PMS_P2;Temp;Humidity;BMP_temperature;BMP_pressure;BME280_temperature;BME280_humidity;BME280_pressure;Samples;Min_cycle;Max_cycle;Signal;HPM_P1;HPM_P2
2021/04/23 00:01:05;;;;;;;8.73;3.55;;;;;;;5.83;50.56;96928.09;5049710;28;20049;-65
2021/04/23 00:03:39;;;;;;;9.82;3.83;;;;;;;5.77;52.53;96926.50;5049287;28;20037;-64
2021/04/23 00:06:10;;;;;;;7.90;3.80;;;;;;;5.73;52.51;96923.50;5049275;28;20052;-65
2021/04/23 00:08:36;;;;;;;10.18;4.07;;;;;;;5.70;52.00;96925.97;5050083;28;20060;-65
2021/04/23 00:11:05;;;;;;;8.13;3.67;;;;;;;5.67;51.76;96927.31;5052610;28;20048;-65
2021/04/23 00:13:31;;;;;;;11.93;3.90;;;;;;;5.64;52.63;96924.38;5053887;28;20055;-64
2021/04/23 00:15:58;;;;;;;10.40;3.55;;;;;;;5.61;52.42;96919.50;5052536;28;20060;-64
2021/04/23 00:18:24;;;;;;;10.98;3.30;;;;;;;5.56;52.20;96916.78;5053477;28;20041;-65
2021/04/23 00:20:52;;;;;;;9.82;3.60;;;;;;;5.49;52.25;96923.28;5052820;28;20126;-64
2021/04/23 00:23:18;;;;;;;9.40;3.90;;;;;;;5.44;52.01;96920.59;5052968;28;20067;-64
2021/04/23 00:25:45;;;;;;;8.20;3.85;;;;;;;5.41;53.04;96921.13;5052828;28;20060;-64
2021/04/23 00:28:13;;;;;;;12.13;3.55;;;;;;;5.38;53.23;96921.69;5051906;28;20053;-64
2021/04/23 00:30:42;;;;;;;12.32;4.00;;;;;;;5.37;52.51;96925.44;5053033;28;20056;-64
2021/04/23 00:33:09;;;;;;;7.45;4.05;;;;;;;5.34;52.53;96926.00;5052046;28;20045;-64
2021/04/23 00:35:39;;;;;;;15.25;4.18;;;;;;;5.33;52.43;96923.56;5053397;28;20045;-64
2021/04/23 00:38:08;;;;;;;9.35;4.03;;;;;;;5.30;53.57;96914.09;5051830;28;20056;-64
2021/04/23 00:40:37;;;;;;;12.13;4.18;;;;;;;5.29;54.86;96917.09;5053604;28;20052;-64
2021/04/23 00:43:03;;;;;;;12.10;4.40;;;;;;;5.25;54.37;96933.00;5051543;28;20080;-65
2021/04/23 00:45:31;;;;;;;15.75;3.83;;;;;;;5.18;52.73;96917.09;5053323;28;20056;-64
2021/04/23 00:48:00;;;;;;;9.57;3.90;;;;;;;5.14;53.80;96926.78;5052431;28;20094;-64
2021/04/23 00:50:29;;;;;;;9.65;3.67;;;;;;;5.06;53.18;96924.63;5052377;28;20686;-65
2021/04/23 00:52:55;;;;;;;10.18;4.13;;;;;;;4.97;53.49;96932.44;5052549;28;20045;-64
2021/04/23 00:55:22;;;;;;;11.18;3.53;;;;;;;4.89;53.45;96915.97;5051925;28;20052;-64
2021/04/23 00:57:48;;;;;;;8.77;3.95;;;;;;;4.87;53.32;96926.22;5052285;28;20095;-64
2021/04/23 01:00:15;;;;;;;10.52;3.92;;;;;;;4.87;53.71;96924.34;5051500;28;20499;-64
2021/04/23 01:02:41;;;;;;;9.63;3.95;;;;;;;4.87;54.62;96924.34;5052939;28;20385;-64
2021/04/23 01:05:09;;;;;;;8.27;3.97;;;;;;;4.92;53.88;96924.34;5051338;28;20045;-64
2021/04/23 01:07:35;;;;;;;9.35;3.65;;;;;;;4.89;54.97;96924.88;5053029;28;20044;-64
2021/04/23 01:10:03;;;;;;;10.55;3.80;;;;;;;4.89;55.12;96930.25;5051390;28;20450;-65
2021/04/23 01:12:30;;;;;;;8.15;3.60;;;;;;;4.87;55.37;96932.44;5052541;28;20048;-64
2021/04/23 01:14:56;;;;;;;8.90;4.10;;;;;;;4.86;54.89;96925.41;5051937;28;20064;-64
2021/04/23 01:17:22;;;;;;;7.57;3.45;;;;;;;4.81;55.25;96933.50;5051510;28;20053;-64
2021/04/23 01:19:48;;;;;;;7.97;3.80;;;;;;;4.79;55.02;96943.72;5052064;28;20519;-64
2021/04/23 01:22:15;;;;;;;12.25;4.05;;;;;;;4.77;54.55;96927.00;5052333;28;20060;-64
2021/04/23 01:24:41;;;;;;;8.27;4.05;;;;;;;4.76;54.92;96930.78;5052707;28;20049;-64
2021/04/23 01:27:07;;;;;;;9.52;4.00;;;;;;;4.73;54.95;96931.31;5048057;28;20049;-64
2021/04/23 01:29:33;;;;;;;8.73;4.00;;;;;;;4.71;55.17;96933.47;5052722;28;20049;-64
2021/04/23 01:31:59;;;;;;;7.40;3.70;;;;;;;4.68;55.36;96934.81;5051273;28;20052;-64
2021/04/23 01:34:27;;;;;;;7.28;3.60;;;;;;;4.64;56.11;96941.81;5051792;28;20041;-64
2021/04/23 01:36:54;;;;;;;8.05;3.95;;;;;;;4.58;56.32;96950.16;5051541;28;20122;-64
2021/04/23 01:39:23;;;;;;;10.50;3.83;;;;;;;4.53;56.76;96950.13;5051426;28;20067;-64
2021/04/23 01:41:51;;;;;;;9.48;3.80;;;;;;;4.45;57.39;96949.59;5051715;28;20049;-64
2021/04/23 01:44:17;;;;;;;9.00;3.80;;;;;;;4.43;55.88;96940.94;5050649;28;20060;-64
2021/04/23 01:46:44;;;;;;;8.45;3.72;;;;;;;4.39;57.34;96942.56;5051927;28;20071;-64
2021/04/23 01:49:12;;;;;;;9.73;3.78;;;;;;;4.35;57.30;96946.84;5050461;28;20053;-64
2021/04/23 01:51:40;;;;;;;7.13;4.03;;;;;;;4.36;56.56;96945.75;5052238;28;20044;-64
2021/04/23 01:54:08;;;;;;;11.13;4.13;;;;;;;4.34;56.43;96945.22;5050357;28;20041;-65
2021/04/23 01:56:35;;;;;;;8.52;3.72;;;;;;;4.30;56.36;96944.13;5051644;28;20068;-64
2021/04/23 01:59:02;;;;;;;9.45;3.83;;;;;;;4.26;56.74;96948.41;5051594;28;20052;-66
2021/04/23 02:01:28;;;;;;;8.07;4.00;;;;;;;4.22;56.83;96950.00;5051544;28;20049;-64
2021/04/23 02:03:56;;;;;;;8.05;3.88;;;;;;;4.17;57.17;96942.69;5051273;28;20045;-64
2021/04/23 02:06:22;;;;;;;11.55;3.70;;;;;;;4.09;56.36;96954.00;5050467;28;20041;-64
2021/04/23 02:08:48;;;;;;;8.35;3.58;;;;;;;4.00;56.66;96949.34;5051208;28;20056;-65
2021/04/23 02:11:17;;;;;;;11.00;4.22;;;;;;;3.97;57.58;96949.88;5050205;28;20068;-64
2021/04/23 02:13:46;;;;;;;9.07;3.80;;;;;;;3.95;57.16;96952.03;5051668;28;20052;-64
2021/04/23 02:16:15;;;;;;;9.68;4.20;;;;;;;3.92;57.89;96953.38;5050067;28;20045;-64
2021/04/23 02:18:41;;;;;;;14.25;4.20;;;;;;;3.90;58.18;96960.88;5051493;28;20533;-64
2021/04/23 02:21:09;;;;;;;10.10;3.92;;;;;;;3.88;57.79;96952.25;5050021;28;20102;-64
2021/04/23 02:23:35;;;;;;;9.88;4.05;;;;;;;3.83;57.23;96955.72;5050932;28;20622;-64
2021/04/23 02:26:03;;;;;;;6.65;3.65;;;;;;;3.82;57.72;96959.50;5050320;28;20044;-65
2021/04/23 02:28:29;;;;;;;8.55;4.05;;;;;;;3.85;59.11;96950.88;5050429;28;20114;-64
2021/04/23 02:30:59;;;;;;;8.95;3.95;;;;;;;3.87;58.42;96951.47;5050749;28;20485;-64
2021/04/23 02:33:26;;;;;;;8.48;4.00;;;;;;;3.89;57.79;96953.88;5049440;28;20064;-64
2021/04/23 02:35:54;;;;;;;9.73;3.75;;;;;;;3.87;57.09;96961.44;5051393;28;20053;-64
2021/04/23 02:38:21;;;;;;;7.28;3.63;;;;;;;3.83;57.69;96955.72;5049479;28;20407;-64
2021/04/23 02:40:47;;;;;;;9.65;3.38;;;;;;;3.78;58.26;96958.41;5051099;28;20523;-64
2021/04/23 02:43:17;;;;;;;11.18;4.20;;;;;;;3.74;59.02;96951.91;5049375;28;20061;-64
2021/04/23 02:45:44;;;;;;;11.20;3.80;;;;;;;3.69;59.87;96964.53;5051342;28;20048;-64
2021/04/23 02:48:13;;;;;;;15.35;4.32;;;;;;;3.65;60.20;96958.81;5050699;28;20447;-64
2021/04/23 02:50:41;;;;;;;8.10;4.22;;;;;;;3.61;60.78;96960.44;5050415;28;20037;-64
2021/04/23 02:53:07;;;;;;;8.05;3.90;;;;;;;3.62;59.32;96959.38;5049992;28;20515;-65
2021/04/23 02:55:34;;;;;;;9.45;3.97;;;;;;;3.61;58.83;96957.75;5049846;28;20060;-64
2021/04/23 02:58:06;;;;;;;9.23;3.97;;;;;;;3.60;58.80;96965.03;5050204;28;20068;-64
2021/04/23 03:00:35;;;;;;;9.10;4.25;;;;;;;3.60;58.86;96967.72;5049716;28;20044;-64
2021/04/23 03:03:01;;;;;;;15.55;4.47;;;;;;;3.57;59.43;96956.63;5050828;28;20056;-64
2021/04/23 03:05:29;;;;;;;11.02;5.15;;;;;;;3.54;59.76;96963.34;5049512;28;20041;-64
2021/04/23 03:07:57;;;;;;;9.88;4.45;;;;;;;3.51;59.30;96963.06;5050198;28;20053;-65
2021/04/23 03:10:25;;;;;;;10.18;3.72;;;;;;;3.49;59.02;96965.19;5049525;28;20045;-64
2021/04/23 03:12:53;;;;;;;8.45;3.58;;;;;;;3.47;59.18;96961.94;5049801;28;20452;-64
2021/04/23 03:15:21;;;;;;;11.73;4.03;;;;;;;3.46;59.57;96965.72;5049822;28;20052;-64
2021/04/23 03:17:47;;;;;;;10.85;3.83;;;;;;;3.45;59.54;96964.09;5049498;28;20117;-64
2021/04/23 03:20:16;;;;;;;8.10;3.83;;;;;;;3.42;59.84;96951.94;5050080;28;20462;-64
2021/04/23 03:22:43;;;;;;;11.13;4.10;;;;;;;3.40;59.83;96960.28;5049310;28;20502;-64
2021/04/23 03:25:12;;;;;;;7.65;3.88;;;;;;;3.38;60.26;96959.72;5050114;28;20056;-64
2021/04/23 03:27:38;;;;;;;9.02;3.60;;;;;;;3.36;59.96;96961.84;5049050;28;20122;-64
2021/04/23 03:30:08;;;;;;;7.57;3.53;;;;;;;3.28;59.70;96967.69;5049777;28;20049;-64
2021/04/23 03:32:34;;;;;;;7.38;3.65;;;;;;;3.24;59.67;96963.91;5049730;28;20400;-64
2021/04/23 03:35:00;;;;;;;9.40;3.97;;;;;;;3.20;60.08;96957.41;5049745;28;20048;-64
2021/04/23 03:37:26;;;;;;;8.02;3.40;;;;;;;3.19;60.28;96953.13;5049623;28;20052;-64
2021/04/23 03:39:53;;;;;;;8.40;3.85;;;;;;;3.12;60.30;96958.69;5049494;28;20044;-64
2021/04/23 03:42:19;;;;;;;8.68;3.38;;;;;;;3.06;60.63;96956.22;5049813;28;20049;-64
2021/04/23 03:44:45;;;;;;;8.32;3.40;;;;;;;2.97;60.96;96957.72;5053138;28;20055;-64
2021/04/23 03:47:11;;;;;;;8.60;3.60;;;;;;;2.90;60.71;96957.13;5053916;28;20620;-64
2021/04/23 03:49:37;;;;;;;10.55;3.83;;;;;;;2.85;60.75;96956.00;5053463;28;20045;-64
2021/04/23 03:52:04;;;;;;;7.38;3.60;;;;;;;2.83;60.81;96958.16;5053822;28;20099;-64
2021/04/23 03:54:30;;;;;;;9.35;3.25;;;;;;;2.81;61.43;96960.25;5053318;28;20137;-64
2021/04/23 03:56:57;;;;;;;8.65;3.08;;;;;;;2.80;61.40;96958.66;5053364;28;20045;-64
2021/04/23 03:59:24;;;;;;;7.68;3.60;;;;;;;2.73;61.09;96968.81;5053101;28;20056;-64
2021/04/23 04:01:50;;;;;;;7.25;3.60;;;;;;;2.67;61.56;96969.81;5053518;28;20041;-64
2021/04/23 04:04:16;;;;;;;8.20;3.60;;;;;;;2.67;61.27;96975.19;5053393;28;20139;-64
2021/04/23 04:06:42;;;;;;;10.32;3.67;;;;;;;2.61;61.44;96970.84;5052876;28;20045;-64
2021/04/23 04:09:08;;;;;;;8.80;3.50;;;;;;;2.59;61.92;96976.44;5053608;28;20136;-64
2021/04/23 04:11:33;;;;;;;9.25;3.67;;;;;;;2.56;61.91;96973.47;5052818;28;20049;-64
2021/04/23 04:14:00;;;;;;;9.80;3.80;;;;;;;2.55;61.84;96986.06;5053987;28;20041;-64
2021/04/23 04:16:26;;;;;;;8.40;3.17;;;;;;;2.56;62.09;96989.59;5052610;28;20055;-64
2021/04/23 04:18:52;;;;;;;6.45;3.00;;;;;;;2.55;61.84;96987.94;5053650;28;20048;-64
2021/04/23 04:21:18;;;;;;;11.75;3.53;;;;;;;2.53;62.07;96982.81;5052469;28;20037;-64
2021/04/23 04:23:44;;;;;;;8.23;3.63;;;;;;;2.60;62.21;96985.31;5053108;28;20412;-64
2021/04/23 04:26:10;;;;;;;8.50;3.40;;;;;;;2.62;62.55;96980.50;5052253;28;20045;-64
2021/04/23 04:28:36;;;;;;;8.02;3.22;;;;;;;2.64;62.83;96981.06;5052777;28;20131;-64
2021/04/23 04:31:03;;;;;;;10.48;3.47;;;;;;;2.61;62.31;96993.16;5052853;28;20103;-65
2021/04/23 04:33:29;;;;;;;7.97;3.38;;;;;;;2.60;62.33;96990.69;5052368;28;20044;-65
2021/04/23 04:35:55;;;;;;;9.77;3.65;;;;;;;2.58;62.44;96993.63;5053645;28;20052;-65
2021/04/23 04:38:21;;;;;;;5.97;3.42;;;;;;;2.56;62.52;97000.34;5051832;28;20098;-65
2021/04/23 04:40:52;;;;;;;10.32;3.80;;;;;;;2.57;62.38;96992.03;5053649;28;20576;-65
2021/04/23 04:43:19;;;;;;;14.85;3.60;;;;;;;2.60;62.44;96999.56;5051673;28;20565;-65
2021/04/23 04:45:46;;;;;;;17.17;3.75;;;;;;;2.64;62.89;97002.56;5053106;28;20053;-65
2021/04/23 04:48:13;;;;;;;9.40;4.05;;;;;;;2.74;62.35;97008.06;5052245;28;20045;-65
2021/04/23 04:50:43;;;;;;;13.80;3.83;;;;;;;2.80;62.07;97012.44;5053438;28;20048;-65
2021/04/23 04:53:10;;;;;;;11.77;3.58;;;;;;;2.84;62.33;97018.94;5052821;28;20103;-65
2021/04/23 04:55:39;;;;;;;13.02;3.67;;;;;;;2.86;62.33;97014.13;5051377;28;20049;-65
2021/04/23 04:58:07;;;;;;;10.68;4.07;;;;;;;2.92;62.90;97014.97;5052257;28;20057;-65
2021/04/23 05:00:34;;;;;;;10.80;3.65;;;;;;;2.95;62.41;97022.56;5052074;28;20049;-64
2021/04/23 05:03:01;;;;;;;10.10;3.83;;;;;;;2.98;61.97;97023.94;5053074;28;20041;-65
2021/04/23 05:05:30;;;;;;;8.93;3.53;;;;;;;3.00;61.71;97027.19;5052879;28;20041;-65
2021/04/23 05:07:57;;;;;;;10.07;4.00;;;;;;;3.04;61.71;97033.69;5052405;28;20049;-64
2021/04/23 05:10:23;;;;;;;12.93;3.72;;;;;;;3.12;62.25;97036.72;5051854;28;20049;-65
2021/04/23 05:12:50;;;;;;;31.33;5.20;;;;;;;3.20;61.18;97043.53;5052057;28;20045;-65
2021/04/23 05:15:17;;;;;;;32.72;5.25;;;;;;;3.23;60.75;97034.94;5051982;28;20098;-64
2021/04/23 05:17:43;;;;;;;28.75;4.90;;;;;;;3.32;61.01;97041.50;5051907;28;20124;-65
2021/04/23 05:20:11;;;;;;;27.77;4.97;;;;;;;3.40;60.53;97043.75;5052146;28;20404;-65
2021/04/23 05:22:39;;;;;;;36.45;5.30;;;;;;;3.48;60.51;97047.03;5051460;28;20377;-64
2021/04/23 05:25:08;;;;;;;19.88;5.70;;;;;;;3.55;60.94;97044.94;5052217;28;20061;-65
2021/04/23 05:27:34;;;;;;;21.27;4.55;;;;;;;3.63;61.61;97052.56;5051078;28;20052;-65
2021/04/23 05:30:02;;;;;;;21.45;5.07;;;;;;;3.72;61.72;97053.72;5052276;28;20053;-65
2021/04/23 05:32:28;;;;;;;16.75;4.82;;;;;;;3.79;61.03;97057.00;5051708;28;20099;-65
2021/04/23 05:34:54;;;;;;;21.73;5.60;;;;;;;3.87;60.46;97053.84;5051868;28;20044;-65
2021/04/23 05:37:21;;;;;;;19.88;5.30;;;;;;;3.94;60.37;97056.31;5051300;28;20123;-64
2021/04/23 05:39:47;;;;;;;22.75;5.22;;;;;;;4.03;60.05;97054.75;5051552;28;20047;-65
2021/04/23 05:42:14;;;;;;;15.80;5.18;;;;;;;4.11;60.22;97064.22;5051813;28;20075;-65
2021/04/23 05:44:41;;;;;;;16.42;5.25;;;;;;;4.17;59.50;97065.88;5050976;28;20083;-65
2021/04/23 05:47:07;;;;;;;12.10;5.10;;;;;;;4.21;59.90;97069.69;5051930;28;20049;-65
2021/04/23 05:49:33;;;;;;;19.27;5.55;;;;;;;4.32;60.35;97066.00;5051321;28;20061;-65
2021/04/23 05:51:59;;;;;;;12.95;5.32;;;;;;;4.42;60.46;97071.44;5052093;28;20442;-65
2021/04/23 05:54:25;;;;;;;15.98;5.43;;;;;;;4.50;59.69;97072.03;5050328;28;20056;-64
2021/04/23 05:56:52;;;;;;;13.68;5.38;;;;;;;4.54;60.38;97073.97;5051297;28;20048;-64
2021/04/23 05:59:19;;;;;;;15.10;5.30;;;;;;;4.60;60.67;97082.88;5050824;28;20044;-64
2021/04/23 06:01:45;;;;;;;10.43;5.07;;;;;;;4.56;61.09;97079.09;5051275;28;20099;-66
2021/04/23 06:04:11;;;;;;;8.63;5.45;;;;;;;4.63;61.90;97082.34;5051095;28;20049;-66
2021/04/23 06:06:36;;;;;;;12.73;5.18;;;;;;;4.70;62.15;97086.44;5049661;28;20049;-66
2021/04/23 06:09:04;;;;;;;13.32;6.32;;;;;;;4.64;62.74;97092.06;5051609;28;20045;-67
2021/04/23 06:11:30;;;;;;;11.13;5.82;;;;;;;4.69;63.50;97092.09;5050705;28;20041;-66
2021/04/23 06:13:57;;;;;;;11.68;5.50;;;;;;;4.81;64.01;97095.41;5051694;28;20048;-64
2021/04/23 06:16:23;;;;;;;12.00;5.50;;;;;;;4.89;64.34;97092.19;5050231;28;20091;-64
2021/04/23 06:18:49;;;;;;;15.77;6.10;;;;;;;4.98;63.62;97095.19;5051455;28;20053;-64
2021/04/23 06:21:15;;;;;;;10.50;5.90;;;;;;;5.04;63.71;97093.31;5050279;28;20047;-64
2021/04/23 06:23:41;;;;;;;14.30;5.72;;;;;;;5.13;63.77;97097.16;5051094;28;20048;-64
2021/04/23 06:26:07;;;;;;;13.73;6.25;;;;;;;5.28;63.33;97093.69;5050342;28;20049;-65
2021/04/23 06:28:42;;;;;;;15.82;5.60;;;;;;;5.42;62.66;97098.28;5073630;27;20352;-66
2021/04/23 06:31:08;;;;;;;12.48;5.22;;;;;;;5.52;61.93;97100.22;5067569;28;20396;-66
2021/04/23 06:33:37;;;;;;;13.45;4.63;;;;;;;5.67;60.13;97102.13;5066841;28;20389;-66
2021/04/23 06:36:04;;;;;;;17.27;5.40;;;;;;;5.77;58.17;97107.56;5067656;28;20468;-66
2021/04/23 06:38:30;;;;;;;10.85;4.75;;;;;;;5.85;57.58;97107.03;5066821;28;20045;-66
2021/04/23 06:40:57;;;;;;;11.75;5.72;;;;;;;5.98;58.70;97109.22;5067776;28;20495;-66
2021/04/23 06:43:25;;;;;;;16.48;5.78;;;;;;;6.08;58.52;97113.81;5066561;28;20411;-66
2021/04/23 06:45:52;;;;;;;13.35;5.15;;;;;;;6.16;58.26;97116.00;5067298;28;20053;-66
2021/04/23 06:48:19;;;;;;;13.15;4.78;;;;;;;6.17;56.38;97111.41;5066874;28;20059;-66
2021/04/23 06:50:45;;;;;;;13.50;4.60;;;;;;;6.24;54.99;97111.94;5066959;28;20053;-66
2021/04/23 06:53:12;;;;;;;13.45;4.40;;;;;;;6.33;55.46;97118.41;5067082;28;20407;-66
2021/04/23 06:55:38;;;;;;;11.27;4.47;;;;;;;6.52;56.00;97124.91;5066727;28;20052;-66
2021/04/23 06:58:05;;;;;;;12.15;4.82;;;;;;;6.67;55.98;97125.94;5066886;28;20048;-66
2021/04/23 07:00:33;;;;;;;19.08;4.75;;;;;;;6.85;53.81;97113.72;5066439;28;20075;-66
2021/04/23 07:03:01;;;;;;;17.58;4.55;;;;;;;7.02;55.36;97123.13;5067666;28;20099;-66
2021/04/23 07:05:29;;;;;;;11.40;3.90;;;;;;;7.19;54.09;97119.28;5066182;28;20052;-66
2021/04/23 07:07:55;;;;;;;14.35;4.55;;;;;;;7.27;52.92;97126.84;5066961;28;20052;-66
2021/04/23 07:10:23;;;;;;;14.40;4.80;;;;;;;7.37;51.03;97124.09;5065842;28;20045;-75
2021/04/23 07:12:50;;;;;;;13.43;4.43;;;;;;;7.52;51.58;97121.31;5065872;28;20419;-74
2021/04/23 07:15:19;;;;;;;9.95;4.38;;;;;;;7.57;49.69;97124.00;5063830;28;20063;-74
2021/04/23 07:17:45;;;;;;;14.02;4.50;;;;;;;7.59;48.02;97119.09;5063424;28;20067;-74
2021/04/23 07:20:13;;;;;;;12.25;4.15;;;;;;;7.71;50.11;97117.94;5063385;28;20044;-66
2021/04/23 07:22:40;;;;;;;14.00;4.20;;;;;;;7.89;52.65;97121.91;5062867;28;20048;-67
2021/04/23 07:25:07;;;;;;;12.70;3.63;;;;;;;8.08;50.89;97123.63;5063672;28;20044;-66
2021/04/23 07:27:35;;;;;;;11.10;3.97;;;;;;;8.22;48.03;97126.53;5061916;28;20053;-67
2021/04/23 07:30:02;;;;;;;11.55;3.70;;;;;;;8.42;48.27;97128.28;5063064;28;20052;-68
2021/04/23 07:32:28;;;;;;;14.45;4.38;;;;;;;8.58;48.24;97132.47;5062937;28;20056;-68
2021/04/23 07:34:54;;;;;;;10.75;3.63;;;;;;;8.79;47.64;97127.66;5063180;28;20057;-67
2021/04/23 07:37:21;;;;;;;13.00;3.60;;;;;;;9.13;47.88;97129.44;5062826;28;20060;-67
2021/04/23 07:39:47;;;;;;;8.23;3.58;;;;;;;10.20;42.30;97134.25;5050990;28;20053;-67
2021/04/23 07:42:13;;;;;;;10.85;3.10;;;;;;;11.60;42.26;97134.19;5049781;28;20079;-68
2021/04/23 07:44:39;;;;;;;10.13;3.50;;;;;;;12.62;38.70;97134.56;5049142;28;20128;-67
2021/04/23 07:47:05;;;;;;;8.65;3.50;;;;;;;13.42;34.98;97128.06;5049724;28;20052;-68
2021/04/23 07:49:31;;;;;;;11.32;3.63;;;;;;;14.62;35.90;97125.78;5049417;28;20053;-67
2021/04/23 07:51:57;;;;;;;13.45;3.50;;;;;;;15.37;33.01;97131.66;5050060;28;20824;-66
2021/04/23 07:54:23;;;;;;;11.05;3.70;;;;;;;16.03;33.45;97122.91;5048720;28;20053;-67
2021/04/23 07:56:49;;;;;;;7.30;3.28;;;;;;;16.83;30.08;97130.97;5048878;28;20045;-67
2021/04/23 07:59:15;;;;;;;18.27;3.67;;;;;;;17.43;28.37;97132.19;5048559;28;20068;-68
2021/04/23 08:01:41;;;;;;;9.32;3.10;;;;;;;17.81;27.39;97137.41;5049269;28;20053;-67
2021/04/23 08:04:07;;;;;;;8.32;3.10;;;;;;;17.60;27.35;97136.69;5048916;28;20049;-67
2021/04/23 08:06:33;;;;;;;8.27;3.05;;;;;;;17.51;26.81;97133.25;5048881;28;20079;-67
2021/04/23 08:09:00;;;;;;;10.70;3.38;;;;;;;17.93;27.76;97129.09;5049701;28;20130;-69
2021/04/23 08:11:29;;;;;;;8.30;3.13;;;;;;;17.95;24.83;97142.53;5048183;28;20124;-67
2021/04/23 08:13:55;;;;;;;8.93;3.10;;;;;;;17.96;25.86;97128.44;5049634;28;20052;-67
2021/04/23 08:16:21;;;;;;;10.25;3.30;;;;;;;18.29;25.68;97134.91;5050548;28;20049;-67
2021/04/23 08:18:52;;;;;;;9.13;3.33;;;;;;;18.46;24.82;97127.13;5052785;28;20048;-67
2021/04/23 08:21:18;;;;;;;9.40;3.40;;;;;;;19.10;24.82;97127.31;5051554;28;20045;-67
2021/04/23 08:23:46;;;;;;;8.65;2.90;;;;;;;19.41;24.03;97124.56;5052258;28;20122;-67
2021/04/23 08:26:12;;;;;;;7.35;2.63;;;;;;;19.63;24.90;97128.69;5051072;28;20049;-67
2021/04/23 08:28:39;;;;;;;14.02;3.00;;;;;;;19.87;22.84;97124.09;5051611;28;20124;-67
2021/04/23 08:31:05;;;;;;;7.75;2.65;;;;;;;20.37;21.81;97130.75;5052101;28;20115;-67
2021/04/23 08:33:31;;;;;;;10.95;3.03;;;;;;;20.35;21.82;97133.84;5051378;28;20053;-67
2021/04/23 08:35:57;;;;;;;11.30;2.70;;;;;;;20.61;22.29;97129.69;5052608;28;20045;-67
2021/04/23 08:38:24;;;;;;;10.90;3.63;;;;;;;20.81;21.86;97134.03;5050763;28;20044;-68
2021/04/23 08:40:50;;;;;;;7.05;2.85;;;;;;;20.87;21.10;97132.56;5052124;28;20407;-67
2021/04/23 08:43:16;;;;;;;8.75;3.05;;;;;;;20.63;21.46;97135.66;5047467;28;20056;-68
2021/04/23 08:45:43;;;;;;;8.68;3.08;;;;;;;20.48;22.65;97127.06;5048803;28;20057;-67
2021/04/23 08:48:10;;;;;;;10.63;3.08;;;;;;;20.70;22.66;97130.25;5047751;28;20045;-67
2021/04/23 08:50:36;;;;;;;10.98;3.78;;;;;;;20.80;21.35;97137.97;5047446;28;20415;-67
2021/04/23 08:53:04;;;;;;;9.13;3.00;;;;;;;20.61;21.89;97135.22;5047757;28;20102;-68
2021/04/23 08:55:30;;;;;;;9.73;3.53;;;;;;;20.31;21.67;97128.28;5048195;28;20061;-68
2021/04/23 08:57:56;;;;;;;12.32;3.33;;;;;;;20.55;21.61;97129.97;5048095;28;20107;-67
2021/04/23 09:00:22;;;;;;;10.05;3.15;;;;;;;19.62;22.56;97120.75;5047215;28;20537;-68
2021/04/23 09:02:49;;;;;;;9.27;3.25;;;;;;;20.06;22.92;97122.19;5048489;28;20053;-67
2021/04/23 09:05:16;;;;;;;9.75;3.60;;;;;;;20.20;23.42;97126.41;5047192;28;20055;-67
2021/04/23 09:07:57;;;;;;;9.40;3.45;;;;;;;20.54;21.51;97131.13;5048276;28;20053;-67
2021/04/23 09:10:23;;;;;;;10.45;3.45;;;;;;;20.71;23.58;97127.13;5047638;28;20075;-67
2021/04/23 09:13:04;;;;;;;9.30;4.00;;;;;;;21.26;22.92;97124.19;5047787;28;20160;-68
2021/04/23 09:15:30;;;;;;;10.50;3.75;;;;;;;21.15;23.18;97124.00;5048303;28;20056;-67
2021/04/23 09:18:11;;;;;;;12.13;3.80;;;;;;;21.52;21.27;97118.75;5047390;28;20064;-67
2021/04/23 09:20:39;;;;;;;17.45;4.25;;;;;;;21.67;20.75;97124.53;5048508;28;20053;-68
2021/04/23 09:23:07;;;;;;;8.32;3.70;;;;;;;21.38;21.90;97128.78;5046691;28;20049;-66
2021/04/23 09:25:43;;;;;;;12.50;4.57;;;;;;;21.78;20.48;97125.47;5048516;28;20103;-66
2021/04/23 09:28:10;;;;;;;13.20;3.65;;;;;;;21.97;22.69;97128.13;5031209;28;20084;-67
2021/04/23 09:30:36;;;;;;;9.98;4.18;;;;;;;21.82;20.65;97120.78;5027750;28;20083;-66
2021/04/23 09:33:02;;;;;;;11.23;4.10;;;;;;;22.11;22.10;97117.28;5027150;28;20506;-67
2021/04/23 09:35:35;;;;;;;10.77;4.15;;;;;;;22.16;19.78;97118.13;5027439;28;20451;-66
2021/04/23 09:38:01;;;;;;;10.57;3.80;;;;;;;21.54;21.56;97127.47;5028309;28;20057;-66
2021/04/23 09:40:30;;;;;;;8.77;3.83;;;;;;;21.38;22.76;97120.47;5026731;28;20045;-66
2021/04/23 09:42:59;;;;;;;10.90;3.85;;;;;;;21.19;20.32;97121.28;5028028;28;20045;-67
2021/04/23 09:45:26;;;;;;;7.88;3.40;;;;;;;20.93;22.87;97114.50;5026760;28;20119;-66
2021/04/23 09:47:53;;;;;;;9.40;3.53;;;;;;;20.84;22.69;97114.75;5028242;28;20103;-67
2021/04/23 09:50:21;;;;;;;8.07;3.58;;;;;;;20.39;22.30;97117.34;5029995;28;20550;-66
2021/04/23 09:52:50;;;;;;;9.68;4.03;;;;;;;20.21;22.84;97122.50;5030650;28;20046;-66
2021/04/23 09:55:17;;;;;;;10.25;3.83;;;;;;;20.06;24.61;97113.09;5030378;28;20041;-67
2021/04/23 09:57:52;;;;;;;10.50;4.35;;;;;;;19.87;23.47;97113.84;5031235;28;20053;-66
2021/04/23 10:00:19;;;;;;;10.07;3.75;;;;;;;19.52;23.15;97106.31;5030481;28;20042;-67
2021/04/23 10:02:49;;;;;;;14.98;4.43;;;;;;;19.47;23.88;97114.88;5029662;28;20052;-67
2021/04/23 10:05:28;;;;;;;11.35;4.43;;;;;;;19.60;26.47;97104.53;5030727;28;20084;-67
2021/04/23 10:07:56;;;;;;;11.40;4.30;;;;;;;19.79;27.02;97103.81;5029979;28;20065;-67
2021/04/23 10:10:22;;;;;;;10.73;4.38;;;;;;;20.05;24.80;97103.22;5030087;28;20053;-67
2021/04/23 10:12:50;;;;;;;9.40;3.95;;;;;;;20.18;23.79;97103.88;5030351;28;20053;-67
2021/04/23 10:15:21;;;;;;;8.15;3.97;;;;;;;19.88;23.35;97104.38;5029325;28;20543;-66
2021/04/23 10:17:49;;;;;;;12.15;4.15;;;;;;;19.15;22.98;97111.28;5030718;28;20061;-67
2021/04/23 10:20:20;;;;;;;11.88;4.18;;;;;;;19.11;27.57;97106.84;5029275;28;20056;-68
2021/04/23 10:22:46;;;;;;;10.55;4.00;;;;;;;19.12;24.77;97111.22;5030810;28;20049;-67
2021/04/23 10:25:14;;;;;;;12.07;4.03;;;;;;;19.15;23.89;97110.47;5040971;28;20049;-67
2021/04/23 10:27:42;;;;;;;13.02;4.40;;;;;;;18.93;24.20;97104.41;5034824;28;20188;-67
2021/04/23 10:30:10;;;;;;;9.57;4.65;;;;;;;18.95;25.00;97099.34;5026238;28;20065;-68
2021/04/23 10:32:36;;;;;;;10.30;4.55;;;;;;;18.99;25.91;97100.22;5027355;28;20048;-67
2021/04/23 10:35:04;;;;;;;10.15;4.70;;;;;;;18.67;24.30;97095.78;5026117;28;20401;-69
2021/04/23 10:37:31;;;;;;;10.52;4.85;;;;;;;17.71;26.11;97099.28;5027044;28;20060;-67
2021/04/23 10:39:58;;;;;;;12.68;5.18;;;;;;;17.67;26.93;97098.34;5027278;28;20071;-67
2021/04/23 10:42:53;;;;;;;11.60;4.53;;;;;;;17.68;25.32;97091.69;5026916;28;20080;-67
2021/04/23 10:45:32;;;;;;;11.18;4.78;;;;;;;17.73;27.18;97094.22;5026869;28;20652;-67
2021/04/23 10:47:58;;;;;;;13.15;4.28;;;;;;;17.80;24.94;97088.97;5026301;28;20420;-68
2021/04/23 10:50:27;;;;;;;14.23;4.35;;;;;;;17.70;25.74;97097.66;5026488;28;20053;-67
2021/04/23 10:53:02;;;;;;;10.00;4.05;;;;;;;17.73;24.83;97094.22;5026755;28;20526;-66
2021/04/23 10:55:44;;;;;;;11.25;4.05;;;;;;;17.84;25.51;97092.59;5026030;28;20045;-66
2021/04/23 10:58:13;;;;;;;8.48;4.05;;;;;;;17.97;24.53;97091.44;5027774;28;20057;-67
2021/04/23 11:00:42;;;;;;;12.60;4.20;;;;;;;18.06;28.12;97084.97;5026349;28;20046;-67
2021/04/23 11:03:32;;;;;;;10.77;4.68;;;;;;;18.18;26.22;97082.22;5026928;28;20052;-68
2021/04/23 11:06:01;;;;;;;13.30;5.03;;;;;;;18.00;23.41;97081.66;5026322;28;20053;-68
2021/04/23 11:08:29;;;;;;;10.02;4.82;;;;;;;18.04;26.09;97077.06;5026216;28;20045;-68
2021/04/23 11:11:17;;;;;;;10.18;4.32;;;;;;;18.19;25.29;97075.53;5026759;28;20049;-67
2021/04/23 11:13:47;;;;;;;10.70;4.68;;;;;;;18.12;25.96;97087.16;5027032;28;20056;-67
2021/04/23 11:16:34;;;;;;;9.00;4.55;;;;;;;18.19;25.96;97070.81;5033674;28;20392;-66
2021/04/23 11:19:34;;;;;;;9.07;4.55;;;;;;;18.13;25.54;97071.44;5032616;28;20045;-67
2021/04/23 11:22:12;;;;;;;15.27;5.32;;;;;;;18.14;25.27;97075.78;5033318;28;20044;-67
2021/04/23 11:24:40;;;;;;;13.32;4.90;;;;;;;18.43;28.41;97063.63;5033508;28;20038;-66
2021/04/23 11:27:09;;;;;;;12.23;5.05;;;;;;;18.56;25.11;97067.91;5032953;28;20075;-68
2021/04/23 11:29:41;;;;;;;11.73;4.88;;;;;;;18.52;24.17;97067.81;5033736;28;20049;-67
2021/04/23 11:32:12;;;;;;;10.68;4.72;;;;;;;18.71;25.06;97063.63;5032380;28;20049;-68
2021/04/23 11:34:40;;;;;;;13.32;4.88;;;;;;;18.99;24.97;97064.34;5033757;28;20060;-67
2021/04/23 11:37:08;;;;;;;9.07;4.38;;;;;;;19.06;25.10;97055.47;5032315;28;20132;-69